createdAt,value
2023-04-24T06:38:06.002Z,62.59
2023-04-24T06:38:17.411Z,63.32
2023-04-24T06:38:27.385Z,63.96
2023-04-24T06:38:37.333Z,64.76
2023-04-24T06:38:47.522Z,65.59
2023-04-24T06:38:57.572Z,66.80
2023-04-24T06:39:07.817Z,67.34
2023-04-24T06:39:17.951Z,67.34
2023-04-24T06:39:28.046Z,67.54
2023-04-24T06:39:38.118Z,67.54
2023-04-24T06:39:48.327Z,67.84
2023-04-24T06:39:58.383Z,68.24
2023-04-24T06:40:08.722Z,68.24
2023-04-24T06:40:18.684Z,68.55
2023-04-24T06:40:28.774Z,68.98
2023-04-24T06:40:39.541Z,68.68
2023-04-24T06:40:49.102Z,68.38
2023-04-24T06:40:59.066Z,68.08
2023-04-24T06:41:09.329Z,68.91
2023-04-24T06:41:19.344Z,69.62
2023-04-24T06:41:29.492Z,70.22
2023-04-24T06:41:39.614Z,70.73
2023-04-24T06:41:49.698Z,70.73
2023-04-24T06:41:59.811Z,70.83
2023-04-24T06:42:09.938Z,70.22
2023-04-24T06:42:19.908Z,70.32
2023-04-24T06:42:30.141Z,70.22
2023-04-24T06:42:40.376Z,70.22
2023-04-24T06:42:50.339Z,69.52
2023-04-24T06:43:00.360Z,69.62
2023-04-24T06:43:10.555Z,69.52
2023-04-24T06:43:20.763Z,69.01
2023-04-24T06:43:31.836Z,68.91
2023-04-24T06:43:40.880Z,69.42
2023-04-24T06:43:51.084Z,69.52
2023-04-24T06:44:01.367Z,69.62
2023-04-24T06:44:11.390Z,69.42
2023-04-24T06:44:21.599Z,70.12
2023-04-24T06:44:41.879Z,70.73
2023-04-24T06:44:51.921Z,70.66
2023-04-24T06:45:02.080Z,70.86
2023-04-24T06:45:12.269Z,70.66
2023-04-24T06:45:22.278Z,70.36
2023-04-24T06:45:32.457Z,70.15
2023-04-24T06:45:42.593Z,70.15
2023-04-24T06:45:52.699Z,70.46
2023-04-24T06:46:02.877Z,70.86
2023-04-24T06:46:12.901Z,71.00
2023-04-24T06:46:23.056Z,71.91
2023-04-24T06:46:33.273Z,72.00
2023-04-24T06:46:43.291Z,72.11
2023-04-24T06:46:53.447Z,72.71
2023-04-24T06:47:03.585Z,73.15
2023-04-24T06:47:13.763Z,73.35
2023-04-24T06:47:23.822Z,73.25
2023-04-24T06:47:34.028Z,72.64
2023-04-24T06:47:44.224Z,72.54
2023-04-24T06:47:54.327Z,72.95
2023-04-24T06:48:04.462Z,72.24
2023-04-24T06:48:14.546Z,71.94
2023-04-24T06:48:24.538Z,72.85
2023-04-24T06:48:34.755Z,73.25
2023-04-24T06:48:44.789Z,73.65
2023-04-24T06:48:55.023Z,73.55
2023-04-24T06:49:05.091Z,73.45
2023-04-24T06:49:15.291Z,72.71
2023-04-24T06:49:25.284Z,72.81
2023-04-24T06:49:35.610Z,72.71
2023-04-24T06:49:45.677Z,72.11
2023-04-24T06:49:55.719Z,71.80
2023-04-24T06:50:05.941Z,72.51
2023-04-24T06:50:15.998Z,72.81
2023-04-24T06:50:26.009Z,73.01
2023-04-24T06:50:36.204Z,72.91
2023-04-24T06:50:46.237Z,72.27
2023-04-24T06:50:56.434Z,71.97
2023-04-24T06:51:06.500Z,71.97
2023-04-24T06:51:16.591Z,71.77
2023-04-24T06:51:26.702Z,71.77
2023-04-24T06:51:36.869Z,71.17
2023-04-24T06:51:47.019Z,70.36
2023-04-24T06:51:57.031Z,70.32
2023-04-24T06:52:07.126Z,70.32
2023-04-24T06:52:17.288Z,70.42
2023-04-24T06:52:27.379Z,70.32
2023-04-24T06:52:37.607Z,70.39
2023-04-24T06:52:47.704Z,70.39
2023-04-24T06:52:57.735Z,69.56
2023-04-24T06:53:07.844Z,69.35
2023-04-24T06:53:18.025Z,68.82
2023-04-24T06:53:28.143Z,68.51
2023-04-24T06:53:38.308Z,68.41
2023-04-24T06:53:49.490Z,68.51
2023-04-24T06:53:58.530Z,68.28
2023-04-24T06:54:08.651Z,68.48
2023-04-24T06:54:18.971Z,68.18
2023-04-24T06:54:29.108Z,67.27
2023-04-24T06:54:39.041Z,67.18
2023-04-24T06:54:49.211Z,67.74
2023-04-24T06:54:59.284Z,67.65
2023-04-24T06:55:09.287Z,66.84
2023-04-24T06:55:19.518Z,66.44
2023-04-24T06:55:29.607Z,66.44
2023-04-24T06:55:39.647Z,67.14
2023-04-24T06:55:49.751Z,67.74
2023-04-24T06:55:59.881Z,67.55
2023-04-24T06:56:10.007Z,67.74
2023-04-24T06:56:20.188Z,67.44
2023-04-24T06:56:30.293Z,67.14
2023-04-24T06:56:40.476Z,66.24
2023-04-24T06:56:50.377Z,65.53
2023-04-24T06:57:00.744Z,65.33
2023-04-24T06:57:10.746Z,65.87
2023-04-24T06:57:20.918Z,66.47
2023-04-24T06:57:31.050Z,66.74
2023-04-24T06:57:41.157Z,67.04
2023-04-24T06:57:51.293Z,67.35
2023-04-24T06:58:01.491Z,66.64
2023-04-24T06:58:11.613Z,66.24
2023-04-24T06:58:21.893Z,66.84
2023-04-24T06:58:31.810Z,67.04
2023-04-24T06:58:41.957Z,66.94
2023-04-24T06:58:52.512Z,66.24
2023-04-24T06:59:02.198Z,65.91
2023-04-24T06:59:12.197Z,66.00
2023-04-24T06:59:22.341Z,66.20
2023-04-24T06:59:32.446Z,66.00
2023-04-24T06:59:42.850Z,65.80
2023-04-24T06:59:52.779Z,66.00
2023-04-24T07:00:02.919Z,66.31
2023-04-24T07:00:12.923Z,66.11
2023-04-24T07:00:23.181Z,65.80
2023-04-24T07:00:33.379Z,65.88
2023-04-24T07:00:43.268Z,65.67
2023-04-24T07:00:53.405Z,65.17
2023-04-24T07:01:03.533Z,64.47
2023-04-24T07:01:13.696Z,64.47
2023-04-24T07:01:23.963Z,64.37
2023-04-24T07:01:33.873Z,64.67
2023-04-24T07:01:44.111Z,65.17
2023-04-24T07:01:55.563Z,65.17
2023-04-24T07:02:04.339Z,64.97
2023-04-24T07:02:14.485Z,64.54
2023-04-24T07:02:24.570Z,64.43
2023-04-24T07:02:34.772Z,64.54
2023-04-24T07:02:44.910Z,64.64
2023-04-24T07:02:54.939Z,64.84
2023-04-24T07:03:05.026Z,64.43
2023-04-24T07:03:15.213Z,64.31
2023-04-24T07:03:25.468Z,65.01
2023-04-24T07:03:35.670Z,65.71
2023-04-24T07:03:45.729Z,67.02
2023-04-24T07:03:55.883Z,66.08
2023-04-24T07:04:06.086Z,64.98
2023-04-24T07:04:16.065Z,65.55
2023-04-24T07:04:26.241Z,67.76
2023-04-24T07:04:36.231Z,67.55
2023-04-24T07:04:46.250Z,68.42
2023-04-24T07:04:56.426Z,69.82
2023-04-24T07:05:06.462Z,70.32
2023-04-24T07:05:16.663Z,69.69
2023-04-24T07:05:26.858Z,70.19
2023-04-24T07:05:36.802Z,69.29
2023-04-24T07:05:47.200Z,66.96
2023-04-24T07:05:57.963Z,66.55
2023-04-24T07:06:07.357Z,65.12
2023-04-24T07:06:17.443Z,65.83
2023-04-24T07:06:27.547Z,66.02
2023-04-24T07:06:37.733Z,65.99
2023-04-24T07:06:47.922Z,64.59
2023-04-24T07:07:08.950Z,63.66
2023-04-24T07:07:18.334Z,64.73
2023-04-24T07:07:28.458Z,64.80
2023-04-24T07:07:38.460Z,66.50
2023-04-24T07:07:48.736Z,64.40
2023-04-24T07:07:58.833Z,62.97
2023-04-24T07:08:19.106Z,60.17
2023-04-24T07:08:29.064Z,58.25
2023-04-24T07:08:39.295Z,59.95
2023-04-24T07:08:49.953Z,58.25
2023-04-24T07:08:59.601Z,57.06
2023-04-24T07:09:09.653Z,56.93
2023-04-24T07:09:19.880Z,56.76
2023-04-24T07:09:29.836Z,58.65
2023-04-24T07:09:40.059Z,57.46
2023-04-24T07:09:50.051Z,56.16
2023-04-24T07:10:00.200Z,54.96
2023-04-24T07:10:10.441Z,53.66
2023-04-24T07:10:20.544Z,54.66
2023-04-24T07:10:30.666Z,54.27
2023-04-24T07:10:40.679Z,53.79
2023-04-24T07:10:50.844Z,53.89
2023-04-24T07:11:01.015Z,53.99
2023-04-24T07:11:11.205Z,54.19
2023-04-24T07:11:21.285Z,53.89
2023-04-24T07:11:31.359Z,54.09
2023-04-24T07:11:41.510Z,54.61
2023-04-24T07:11:51.635Z,54.71
2023-04-24T07:12:01.717Z,54.71
2023-04-24T07:12:11.812Z,54.82
2023-04-24T07:12:22.006Z,54.91
2023-04-24T07:12:32.157Z,55.11
2023-04-24T07:12:42.251Z,54.32
2023-04-24T07:12:52.279Z,53.92
2023-04-24T07:13:02.571Z,53.72
2023-04-24T07:13:12.643Z,53.74
2023-04-24T07:13:22.840Z,53.64
2023-04-24T07:13:33.012Z,54.04
2023-04-24T07:13:43.335Z,54.14
2023-04-24T07:13:53.067Z,54.04
2023-04-24T07:14:03.246Z,54.17
2023-04-24T07:14:13.430Z,54.37
2023-04-24T07:14:23.582Z,54.27
2023-04-24T07:14:33.743Z,54.17
2023-04-24T07:14:43.931Z,54.06
2023-04-24T07:14:53.916Z,54.19
2023-04-24T07:15:03.952Z,54.10
2023-04-24T07:15:14.179Z,54.29
2023-04-24T07:15:24.237Z,54.60
2023-04-24T07:15:34.367Z,54.49
2023-04-24T07:15:44.415Z,54.60
2023-04-24T07:15:54.604Z,54.52
2023-04-24T07:16:04.712Z,54.32
2023-04-24T07:16:14.813Z,54.32
2023-04-24T07:16:25.028Z,54.42
2023-04-24T07:16:35.044Z,54.62
2023-04-24T07:26:21.218Z,51.84
2023-04-24T07:26:32.917Z,51.64
2023-04-24T07:26:42.449Z,51.54
2023-04-24T07:26:52.756Z,52.14
2023-04-24T07:27:02.771Z,53.14
2023-04-24T07:27:12.837Z,52.84
2023-04-24T07:27:23.066Z,52.55
2023-04-24T07:27:33.170Z,52.94
2023-04-24T07:27:43.423Z,52.64
2023-04-24T07:27:53.411Z,52.55
2023-04-24T07:28:03.620Z,52.44
2023-04-24T07:28:13.589Z,51.75
2023-04-24T07:28:23.804Z,51.75
2023-04-24T07:28:33.884Z,51.75
2023-04-24T07:28:44.085Z,51.54
2023-04-24T07:28:54.118Z,51.04
2023-04-24T07:29:04.320Z,50.95
2023-04-24T07:29:14.356Z,51.34
2023-04-24T07:29:24.485Z,51.45
2023-04-24T07:29:34.664Z,51.54
2023-04-24T07:29:45.174Z,51.45
2023-04-24T07:29:54.816Z,51.04
2023-04-24T07:30:04.936Z,51.17
2023-04-24T07:30:15.053Z,51.07
2023-04-24T07:30:25.188Z,51.37
2023-04-24T07:30:35.259Z,51.69
2023-04-24T07:30:45.510Z,51.89
2023-04-24T07:30:55.535Z,52.12
2023-04-24T07:31:05.682Z,51.62
2023-04-24T07:31:15.735Z,51.84
2023-04-24T07:31:25.974Z,51.94
2023-04-24T07:31:36.068Z,52.17
2023-04-24T07:31:46.241Z,52.57
2023-04-24T07:31:56.260Z,52.97
2023-04-24T07:32:06.525Z,53.30
2023-04-24T07:32:16.470Z,53.80
2023-04-24T07:32:26.657Z,54.43
2023-04-24T07:32:36.749Z,54.72
2023-04-24T07:32:46.914Z,54.82
2023-04-24T07:32:56.970Z,55.35
2023-04-24T07:33:07.170Z,55.95
2023-04-24T07:33:17.314Z,56.38
2023-04-24T07:33:27.959Z,56.78
2023-04-24T07:33:37.339Z,57.18
2023-04-24T07:33:47.472Z,57.48
2023-04-24T07:33:57.607Z,57.71
2023-04-24T07:34:08.004Z,57.71
